sensor_id;sensor_type;location;lat;lon;timestamp;P1;durP1;ratioP1;P2;durP2;ratioP2
34639;SDS011;22600;48.186;11.526;2023-02-18T00:01:29;2.80;;;1.83;;
34639;SDS011;22600;48.186;11.526;2023-02-18T00:03:55;3.05;;;1.60;;
34639;SDS011;22600;48.186;11.526;2023-02-18T00:06:23;2.10;;;1.45;;
34639;SDS011;22600;48.186;11.526;2023-02-18T00:08:51;2.90;;;1.77;;
34639;SDS011;22600;48.186;11.526;2023-02-18T00:11:17;4.95;;;1.80;;
34639;SDS011;22600;48.186;11.526;2023-02-18T00:13:48;3.55;;;1.80;;
34639;SDS011;22600;48.186;11.526;2023-02-18T00:16:18;3.40;;;1.95;;
34639;SDS011;22600;48.186;11.526;2023-02-18T00:18:45;7.50;;;1.95;;
34639;SDS011;22600;48.186;11.526;2023-02-18T00:21:10;3.63;;;1.80;;
34639;SDS011;22600;48.186;11.526;2023-02-18T00:23:36;4.95;;;1.80;;
34639;SDS011;22600;48.186;11.526;2023-02-18T00:26:06;2.80;;;1.67;;
34639;SDS011;22600;48.186;11.526;2023-02-18T00:28:33;4.38;;;1.70;;
34639;SDS011;22600;48.186;11.526;2023-02-18T00:30:59;3.53;;;1.92;;
34639;SDS011;22600;48.186;11.526;2023-02-18T00:33:34;3.10;;;1.60;;
34639;SDS011;22600;48.186;11.526;2023-02-18T00:36:00;3.55;;;1.77;;
34639;SDS011;22600;48.186;11.526;2023-02-18T00:38:27;3.97;;;1.63;;
34639;SDS011;22600;48.186;11.526;2023-02-18T00:40:53;3.63;;;1.70;;
34639;SDS011;22600;48.186;11.526;2023-02-18T00:43:18;3.15;;;1.70;;
34639;SDS011;22600;48.186;11.526;2023-02-18T00:45:44;2.47;;;1.60;;
34639;SDS011;22600;48.186;11.526;2023-02-18T00:48:09;2.22;;;1.60;;
34639;SDS011;22600;48.186;11.526;2023-02-18T00:50:35;3.75;;;1.73;;
34639;SDS011;22600;48.186;11.526;2023-02-18T00:53:01;3.88;;;1.75;;
34639;SDS011;22600;48.186;11.526;2023-02-18T00:55:26;2.85;;;1.63;;
34639;SDS011;22600;48.186;11.526;2023-02-18T00:57:52;2.80;;;1.50;;
34639;SDS011;22600;48.186;11.526;2023-02-18T01:00:17;3.35;;;1.65;;
34639;SDS011;22600;48.186;11.526;2023-02-18T01:02:43;3.28;;;1.33;;
34639;SDS011;22600;48.186;11.526;2023-02-18T01:05:09;2.88;;;1.63;;
34639;SDS011;22600;48.186;11.526;2023-02-18T01:07:34;2.70;;;1.60;;
34639;SDS011;22600;48.186;11.526;2023-02-18T01:10:00;2.78;;;1.77;;
34639;SDS011;22600;48.186;11.526;2023-02-18T01:12:25;2.38;;;1.52;;
34639;SDS011;22600;48.186;11.526;2023-02-18T01:14:51;2.83;;;1.85;;
34639;SDS011;22600;48.186;11.526;2023-02-18T01:17:16;2.47;;;1.60;;
34639;SDS011;22600;48.186;11.526;2023-02-18T01:19:42;3.03;;;1.42;;
34639;SDS011;22600;48.186;11.526;2023-02-18T01:22:07;3.35;;;1.70;;
34639;SDS011;22600;48.186;11.526;2023-02-18T01:24:33;3.35;;;1.65;;
34639;SDS011;22600;48.186;11.526;2023-02-18T01:26:59;2.20;;;1.70;;
34639;SDS011;22600;48.186;11.526;2023-02-18T01:29:24;3.17;;;1.70;;
34639;SDS011;22600;48.186;11.526;2023-02-18T01:31:50;2.65;;;1.67;;
34639;SDS011;22600;48.186;11.526;2023-02-18T01:34:15;1.98;;;1.48;;
34639;SDS011;22600;48.186;11.526;2023-02-18T01:36:41;4.13;;;1.80;;
34639;SDS011;22600;48.186;11.526;2023-02-18T01:39:06;2.00;;;1.50;;
34639;SDS011;22600;48.186;11.526;2023-02-18T01:41:32;1.73;;;1.38;;
34639;SDS011;22600;48.186;11.526;2023-02-18T01:44:09;2.28;;;1.52;;
34639;SDS011;22600;48.186;11.526;2023-02-18T01:46:37;2.88;;;1.77;;
34639;SDS011;22600;48.186;11.526;2023-02-18T01:49:02;2.83;;;1.70;;
34639;SDS011;22600;48.186;11.526;2023-02-18T01:51:33;3.50;;;1.83;;
34639;SDS011;22600;48.186;11.526;2023-02-18T01:59:27;2.05;;;1.50;;
34639;SDS011;22600;48.186;11.526;2023-02-18T02:01:57;2.92;;;1.60;;
34639;SDS011;22600;48.186;11.526;2023-02-18T02:04:23;3.03;;;1.70;;
34639;SDS011;22600;48.186;11.526;2023-02-18T02:06:49;3.55;;;1.45;;
34639;SDS011;22600;48.186;11.526;2023-02-18T02:09:16;2.38;;;1.48;;
34639;SDS011;22600;48.186;11.526;2023-02-18T02:25:44;2.70;;;1.65;;
34639;SDS011;22600;48.186;11.526;2023-02-18T02:31:41;3.42;;;1.55;;
34639;SDS011;22600;48.186;11.526;2023-02-18T02:34:19;2.45;;;1.50;;
34639;SDS011;22600;48.186;11.526;2023-02-18T02:37:15;6.18;;;1.55;;
34639;SDS011;22600;48.186;11.526;2023-02-18T02:42:45;1.92;;;1.52;;
34639;SDS011;22600;48.186;11.526;2023-02-18T02:45:28;3.22;;;1.50;;
34639;SDS011;22600;48.186;11.526;2023-02-18T02:51:22;2.55;;;1.40;;
34639;SDS011;22600;48.186;11.526;2023-02-18T02:53:54;3.38;;;1.50;;
34639;SDS011;22600;48.186;11.526;2023-02-18T02:56:34;2.05;;;1.40;;
34639;SDS011;22600;48.186;11.526;2023-02-18T02:59:00;3.00;;;1.63;;
34639;SDS011;22600;48.186;11.526;2023-02-18T03:01:33;3.45;;;1.60;;
34639;SDS011;22600;48.186;11.526;2023-02-18T03:06:58;2.90;;;1.55;;
34639;SDS011;22600;48.186;11.526;2023-02-18T03:09:46;2.72;;;1.45;;
34639;SDS011;22600;48.186;11.526;2023-02-18T03:12:37;2.97;;;1.50;;
34639;SDS011;22600;48.186;11.526;2023-02-18T03:15:39;2.80;;;1.52;;
34639;SDS011;22600;48.186;11.526;2023-02-18T03:18:47;2.63;;;1.27;;
34639;SDS011;22600;48.186;11.526;2023-02-18T03:21:26;2.53;;;1.30;;
34639;SDS011;22600;48.186;11.526;2023-02-18T03:24:00;2.03;;;1.30;;
34639;SDS011;22600;48.186;11.526;2023-02-18T03:26:38;2.40;;;1.60;;
34639;SDS011;22600;48.186;11.526;2023-02-18T03:29:08;1.85;;;1.35;;
34639;SDS011;22600;48.186;11.526;2023-02-18T03:31:36;2.00;;;1.35;;
34639;SDS011;22600;48.186;11.526;2023-02-18T03:34:05;3.38;;;1.42;;
34639;SDS011;22600;48.186;11.526;2023-02-18T03:36:34;3.22;;;1.45;;
34639;SDS011;22600;48.186;11.526;2023-02-18T03:39:06;2.17;;;1.45;;
34639;SDS011;22600;48.186;11.526;2023-02-18T03:41:38;2.78;;;1.38;;
34639;SDS011;22600;48.186;11.526;2023-02-18T03:44:05;3.17;;;1.40;;
34639;SDS011;22600;48.186;11.526;2023-02-18T03:46:32;2.00;;;1.42;;
34639;SDS011;22600;48.186;11.526;2023-02-18T03:48:59;1.80;;;1.30;;
34639;SDS011;22600;48.186;11.526;2023-02-18T03:51:25;2.70;;;1.42;;
34639;SDS011;22600;48.186;11.526;2023-02-18T03:53:51;3.17;;;1.30;;
34639;SDS011;22600;48.186;11.526;2023-02-18T03:56:17;2.60;;;1.40;;
34639;SDS011;22600;48.186;11.526;2023-02-18T03:58:43;1.58;;;1.40;;
34639;SDS011;22600;48.186;11.526;2023-02-18T04:01:09;2.63;;;1.50;;
34639;SDS011;22600;48.186;11.526;2023-02-18T04:03:34;2.47;;;1.25;;
34639;SDS011;22600;48.186;11.526;2023-02-18T04:06:00;3.30;;;1.33;;
34639;SDS011;22600;48.186;11.526;2023-02-18T04:08:25;2.35;;;1.35;;
34639;SDS011;22600;48.186;11.526;2023-02-18T04:10:51;3.80;;;1.40;;
34639;SDS011;22600;48.186;11.526;2023-02-18T04:13:17;2.47;;;1.40;;
34639;SDS011;22600;48.186;11.526;2023-02-18T04:15:43;1.88;;;1.25;;
34639;SDS011;22600;48.186;11.526;2023-02-18T04:18:09;2.80;;;1.30;;
34639;SDS011;22600;48.186;11.526;2023-02-18T04:20:35;3.78;;;1.55;;
34639;SDS011;22600;48.186;11.526;2023-02-18T04:23:01;2.40;;;1.30;;
34639;SDS011;22600;48.186;11.526;2023-02-18T04:25:28;1.90;;;1.23;;
34639;SDS011;22600;48.186;11.526;2023-02-18T04:27:53;3.90;;;1.50;;
34639;SDS011;22600;48.186;11.526;2023-02-18T04:30:19;2.67;;;1.20;;
34639;SDS011;22600;48.186;11.526;2023-02-18T04:32:44;2.78;;;1.40;;
34639;SDS011;22600;48.186;11.526;2023-02-18T04:35:10;1.92;;;1.40;;
34639;SDS011;22600;48.186;11.526;2023-02-18T04:37:36;2.75;;;1.30;;
34639;SDS011;22600;48.186;11.526;2023-02-18T04:40:01;2.30;;;1.30;;
34639;SDS011;22600;48.186;11.526;2023-02-18T04:42:27;3.63;;;1.50;;
34639;SDS011;22600;48.186;11.526;2023-02-18T04:44:53;3.10;;;1.35;;
34639;SDS011;22600;48.186;11.526;2023-02-18T04:47:18;2.28;;;1.27;;
34639;SDS011;22600;48.186;11.526;2023-02-18T04:49:44;2.80;;;1.15;;
34639;SDS011;22600;48.186;11.526;2023-02-18T04:52:09;1.58;;;1.10;;
34639;SDS011;22600;48.186;11.526;2023-02-18T04:54:35;1.70;;;1.33;;
34639;SDS011;22600;48.186;11.526;2023-02-18T04:57:00;3.05;;;1.40;;
34639;SDS011;22600;48.186;11.526;2023-02-18T04:59:26;1.90;;;1.30;;
34639;SDS011;22600;48.186;11.526;2023-02-18T05:01:51;1.85;;;1.10;;
34639;SDS011;22600;48.186;11.526;2023-02-18T05:04:17;1.92;;;1.15;;
34639;SDS011;22600;48.186;11.526;2023-02-18T05:06:43;2.10;;;1.20;;
34639;SDS011;22600;48.186;11.526;2023-02-18T05:09:09;2.10;;;1.40;;
34639;SDS011;22600;48.186;11.526;2023-02-18T05:11:35;2.45;;;1.35;;
34639;SDS011;22600;48.186;11.526;2023-02-18T05:14:01;3.08;;;1.60;;
34639;SDS011;22600;48.186;11.526;2023-02-18T05:16:26;2.75;;;1.35;;
34639;SDS011;22600;48.186;11.526;2023-02-18T05:18:52;2.75;;;1.15;;
34639;SDS011;22600;48.186;11.526;2023-02-18T05:21:17;2.50;;;1.40;;
34639;SDS011;22600;48.186;11.526;2023-02-18T05:23:43;1.60;;;1.30;;
34639;SDS011;22600;48.186;11.526;2023-02-18T05:26:08;3.30;;;1.40;;
34639;SDS011;22600;48.186;11.526;2023-02-18T05:28:34;1.85;;;1.20;;
34639;SDS011;22600;48.186;11.526;2023-02-18T05:31:01;1.83;;;1.13;;
34639;SDS011;22600;48.186;11.526;2023-02-18T05:33:27;3.50;;;1.48;;
34639;SDS011;22600;48.186;11.526;2023-02-18T05:35:52;2.13;;;1.30;;
34639;SDS011;22600;48.186;11.526;2023-02-18T05:38:18;3.60;;;1.42;;
34639;SDS011;22600;48.186;11.526;2023-02-18T05:40:44;2.08;;;1.20;;
34639;SDS011;22600;48.186;11.526;2023-02-18T05:43:10;2.55;;;1.10;;
34639;SDS011;22600;48.186;11.526;2023-02-18T05:45:36;1.30;;;1.00;;
34639;SDS011;22600;48.186;11.526;2023-02-18T05:48:01;2.22;;;1.40;;
34639;SDS011;22600;48.186;11.526;2023-02-18T05:50:27;1.50;;;1.13;;
34639;SDS011;22600;48.186;11.526;2023-02-18T05:52:53;2.22;;;1.30;;
34639;SDS011;22600;48.186;11.526;2023-02-18T05:55:18;2.80;;;1.20;;
34639;SDS011;22600;48.186;11.526;2023-02-18T05:57:44;2.63;;;1.20;;
34639;SDS011;22600;48.186;11.526;2023-02-18T06:00:09;1.35;;;1.10;;
34639;SDS011;22600;48.186;11.526;2023-02-18T06:02:36;1.50;;;1.10;;
34639;SDS011;22600;48.186;11.526;2023-02-18T06:05:02;2.83;;;1.17;;
34639;SDS011;22600;48.186;11.526;2023-02-18T06:07:28;3.72;;;1.33;;
34639;SDS011;22600;48.186;11.526;2023-02-18T06:09:54;3.55;;;1.48;;
34639;SDS011;22600;48.186;11.526;2023-02-18T06:12:19;1.63;;;1.08;;
34639;SDS011;22600;48.186;11.526;2023-02-18T06:14:45;2.92;;;1.30;;
34639;SDS011;22600;48.186;11.526;2023-02-18T06:17:11;2.88;;;1.10;;
34639;SDS011;22600;48.186;11.526;2023-02-18T06:19:37;2.15;;;0.93;;
34639;SDS011;22600;48.186;11.526;2023-02-18T06:22:03;2.03;;;1.20;;
34639;SDS011;22600;48.186;11.526;2023-02-18T06:24:29;1.77;;;1.30;;
34639;SDS011;22600;48.186;11.526;2023-02-18T06:26:55;1.42;;;1.10;;
34639;SDS011;22600;48.186;11.526;2023-02-18T06:29:20;1.80;;;1.30;;
34639;SDS011;22600;48.186;11.526;2023-02-18T06:31:46;1.60;;;1.20;;
34639;SDS011;22600;48.186;11.526;2023-02-18T06:34:12;2.05;;;1.05;;
34639;SDS011;22600;48.186;11.526;2023-02-18T06:36:37;1.92;;;1.20;;
34639;SDS011;22600;48.186;11.526;2023-02-18T06:39:04;2.25;;;1.30;;
34639;SDS011;22600;48.186;11.526;2023-02-18T06:41:30;2.90;;;1.10;;
34639;SDS011;22600;48.186;11.526;2023-02-18T06:43:56;1.67;;;1.30;;
34639;SDS011;22600;48.186;11.526;2023-02-18T06:46:21;1.75;;;1.10;;
34639;SDS011;22600;48.186;11.526;2023-02-18T06:48:47;1.80;;;1.35;;
34639;SDS011;22600;48.186;11.526;2023-02-18T06:51:12;1.60;;;1.10;;
34639;SDS011;22600;48.186;11.526;2023-02-18T06:53:40;1.40;;;1.20;;
34639;SDS011;22600;48.186;11.526;2023-02-18T06:56:06;1.33;;;1.10;;
34639;SDS011;22600;48.186;11.526;2023-02-18T06:58:31;1.95;;;1.20;;
34639;SDS011;22600;48.186;11.526;2023-02-18T07:00:57;3.55;;;1.20;;
34639;SDS011;22600;48.186;11.526;2023-02-18T07:03:22;2.88;;;1.30;;
34639;SDS011;22600;48.186;11.526;2023-02-18T07:05:48;1.58;;;1.00;;
34639;SDS011;22600;48.186;11.526;2023-02-18T07:08:14;2.47;;;1.17;;
34639;SDS011;22600;48.186;11.526;2023-02-18T07:10:39;2.10;;;1.10;;
34639;SDS011;22600;48.186;11.526;2023-02-18T07:13:05;1.45;;;1.02;;
34639;SDS011;22600;48.186;11.526;2023-02-18T07:15:31;4.38;;;1.30;;
34639;SDS011;22600;48.186;11.526;2023-02-18T07:17:56;2.40;;;1.20;;
34639;SDS011;22600;48.186;11.526;2023-02-18T07:20:22;1.52;;;1.08;;
34639;SDS011;22600;48.186;11.526;2023-02-18T07:22:49;1.60;;;1.10;;
34639;SDS011;22600;48.186;11.526;2023-02-18T07:25:15;3.05;;;1.10;;
34639;SDS011;22600;48.186;11.526;2023-02-18T07:27:40;3.28;;;1.20;;
34639;SDS011;22600;48.186;11.526;2023-02-18T07:30:07;1.40;;;1.00;;
34639;SDS011;22600;48.186;11.526;2023-02-18T07:32:33;1.90;;;1.17;;
34639;SDS011;22600;48.186;11.526;2023-02-18T07:34:58;1.50;;;1.02;;
34639;SDS011;22600;48.186;11.526;2023-02-18T07:37:24;2.17;;;1.20;;
34639;SDS011;22600;48.186;11.526;2023-02-18T07:39:49;1.58;;;0.95;;
34639;SDS011;22600;48.186;11.526;2023-02-18T07:42:15;2.67;;;0.95;;
34639;SDS011;22600;48.186;11.526;2023-02-18T07:44:41;2.78;;;1.00;;
34639;SDS011;22600;48.186;11.526;2023-02-18T07:47:06;1.85;;;0.85;;
34639;SDS011;22600;48.186;11.526;2023-02-18T07:49:34;2.88;;;1.05;;
34639;SDS011;22600;48.186;11.526;2023-02-18T07:52:00;1.60;;;1.17;;
34639;SDS011;22600;48.186;11.526;2023-02-18T07:54:26;1.70;;;1.00;;
34639;SDS011;22600;48.186;11.526;2023-02-18T07:56:52;1.88;;;1.00;;
34639;SDS011;22600;48.186;11.526;2023-02-18T07:59:18;1.77;;;1.20;;
34639;SDS011;22600;48.186;11.526;2023-02-18T08:01:44;1.40;;;1.00;;
34639;SDS011;22600;48.186;11.526;2023-02-18T08:04:10;1.90;;;1.10;;
34639;SDS011;22600;48.186;11.526;2023-02-18T08:06:37;2.47;;;1.20;;
34639;SDS011;22600;48.186;11.526;2023-02-18T08:09:07;1.98;;;1.10;;
34639;SDS011;22600;48.186;11.526;2023-02-18T08:11:33;15.13;;;1.48;;
34639;SDS011;22600;48.186;11.526;2023-02-18T08:13:59;1.83;;;0.93;;
34639;SDS011;22600;48.186;11.526;2023-02-18T08:16:25;2.00;;;1.20;;
34639;SDS011;22600;48.186;11.526;2023-02-18T08:18:51;2.85;;;0.90;;
34639;SDS011;22600;48.186;11.526;2023-02-18T08:21:19;1.35;;;0.80;;
34639;SDS011;22600;48.186;11.526;2023-02-18T08:23:45;1.60;;;0.95;;
34639;SDS011;22600;48.186;11.526;2023-02-18T08:26:12;2.60;;;1.00;;
34639;SDS011;22600;48.186;11.526;2023-02-18T08:28:38;2.03;;;1.00;;
34639;SDS011;22600;48.186;11.526;2023-02-18T08:31:03;1.38;;;0.85;;
34639;SDS011;22600;48.186;11.526;2023-02-18T08:33:29;1.40;;;1.00;;
34639;SDS011;22600;48.186;11.526;2023-02-18T08:35:55;1.40;;;1.00;;
34639;SDS011;22600;48.186;11.526;2023-02-18T08:38:21;1.73;;;0.90;;
34639;SDS011;22600;48.186;11.526;2023-02-18T08:40:48;2.40;;;1.00;;
34639;SDS011;22600;48.186;11.526;2023-02-18T08:43:14;2.88;;;0.95;;
34639;SDS011;22600;48.186;11.526;2023-02-18T08:45:40;1.55;;;1.00;;
34639;SDS011;22600;48.186;11.526;2023-02-18T08:48:07;1.13;;;0.90;;
34639;SDS011;22600;48.186;11.526;2023-02-18T08:50:34;1.38;;;0.95;;
34639;SDS011;22600;48.186;11.526;2023-02-18T08:53:00;1.50;;;1.00;;
34639;SDS011;22600;48.186;11.526;2023-02-18T08:55:27;3.33;;;0.95;;
34639;SDS011;22600;48.186;11.526;2023-02-18T08:57:57;1.35;;;0.90;;
34639;SDS011;22600;48.186;11.526;2023-02-18T09:00:23;1.33;;;0.90;;
34639;SDS011;22600;48.186;11.526;2023-02-18T09:02:49;1.10;;;0.80;;
34639;SDS011;22600;48.186;11.526;2023-02-18T09:05:15;17.75;;;1.25;;
34639;SDS011;22600;48.186;11.526;2023-02-18T09:07:40;1.70;;;1.02;;
34639;SDS011;22600;48.186;11.526;2023-02-18T09:10:06;1.42;;;1.00;;
34639;SDS011;22600;48.186;11.526;2023-02-18T09:12:32;1.50;;;1.00;;
34639;SDS011;22600;48.186;11.526;2023-02-18T09:14:58;4.57;;;0.90;;
34639;SDS011;22600;48.186;11.526;2023-02-18T09:17:25;1.95;;;1.05;;
34639;SDS011;22600;48.186;11.526;2023-02-18T09:19:50;1.63;;;0.95;;
34639;SDS011;22600;48.186;11.526;2023-02-18T09:22:17;1.92;;;0.80;;
34639;SDS011;22600;48.186;11.526;2023-02-18T09:24:42;2.75;;;1.00;;
34639;SDS011;22600;48.186;11.526;2023-02-18T09:27:08;1.75;;;1.15;;
34639;SDS011;22600;48.186;11.526;2023-02-18T09:29:36;1.13;;;0.95;;
34639;SDS011;22600;48.186;11.526;2023-02-18T09:32:02;1.88;;;0.95;;
34639;SDS011;22600;48.186;11.526;2023-02-18T09:34:28;2.53;;;1.10;;
34639;SDS011;22600;48.186;11.526;2023-02-18T09:36:54;2.38;;;1.10;;
34639;SDS011;22600;48.186;11.526;2023-02-18T09:39:20;1.20;;;0.90;;
34639;SDS011;22600;48.186;11.526;2023-02-18T09:41:49;1.90;;;1.00;;
34639;SDS011;22600;48.186;11.526;2023-02-18T09:46:53;1.50;;;1.00;;
34639;SDS011;22600;48.186;11.526;2023-02-18T09:49:34;1.92;;;0.90;;
34639;SDS011;22600;48.186;11.526;2023-02-18T09:52:06;2.22;;;1.10;;
34639;SDS011;22600;48.186;11.526;2023-02-18T09:54:35;3.05;;;1.20;;
34639;SDS011;22600;48.186;11.526;2023-02-18T09:57:01;2.13;;;0.85;;
34639;SDS011;22600;48.186;11.526;2023-02-18T09:59:27;1.77;;;1.00;;
34639;SDS011;22600;48.186;11.526;2023-02-18T10:01:54;1.50;;;0.98;;
34639;SDS011;22600;48.186;11.526;2023-02-18T10:04:23;2.47;;;1.10;;
34639;SDS011;22600;48.186;11.526;2023-02-18T10:06:55;1.38;;;0.90;;
34639;SDS011;22600;48.186;11.526;2023-02-18T10:09:30;1.40;;;1.05;;
34639;SDS011;22600;48.186;11.526;2023-02-18T10:12:01;1.73;;;1.05;;
34639;SDS011;22600;48.186;11.526;2023-02-18T10:14:39;1.55;;;1.00;;
34639;SDS011;22600;48.186;11.526;2023-02-18T10:17:05;2.38;;;1.10;;
34639;SDS011;22600;48.186;11.526;2023-02-18T10:19:35;1.58;;;0.90;;
34639;SDS011;22600;48.186;11.526;2023-02-18T10:22:03;1.48;;;1.10;;
34639;SDS011;22600;48.186;11.526;2023-02-18T10:24:31;1.50;;;1.00;;
34639;SDS011;22600;48.186;11.526;2023-02-18T10:26:59;2.78;;;1.00;;
34639;SDS011;22600;48.186;11.526;2023-02-18T10:29:27;1.35;;;0.90;;
34639;SDS011;22600;48.186;11.526;2023-02-18T10:31:58;2.00;;;1.02;;
34639;SDS011;22600;48.186;11.526;2023-02-18T10:34:41;2.13;;;1.02;;
34639;SDS011;22600;48.186;11.526;2023-02-18T10:40:18;1.75;;;1.00;;
34639;SDS011;22600;48.186;11.526;2023-02-18T10:43:21;2.72;;;0.98;;
34639;SDS011;22600;48.186;11.526;2023-02-18T10:46:12;1.55;;;0.90;;
34639;SDS011;22600;48.186;11.526;2023-02-18T10:51:49;1.23;;;1.00;;
34639;SDS011;22600;48.186;11.526;2023-02-18T10:54:22;1.33;;;0.98;;
34639;SDS011;22600;48.186;11.526;2023-02-18T10:56:50;1.60;;;1.00;;
34639;SDS011;22600;48.186;11.526;2023-02-18T10:59:26;1.58;;;1.00;;
34639;SDS011;22600;48.186;11.526;2023-02-18T11:01:58;1.42;;;0.80;;
34639;SDS011;22600;48.186;11.526;2023-02-18T11:04:39;1.10;;;0.88;;
34639;SDS011;22600;48.186;11.526;2023-02-18T11:07:20;1.10;;;0.90;;
34639;SDS011;22600;48.186;11.526;2023-02-18T11:09:51;1.17;;;0.82;;
34639;SDS011;22600;48.186;11.526;2023-02-18T11:14:47;1.63;;;0.90;;
34639;SDS011;22600;48.186;11.526;2023-02-18T11:17:34;1.10;;;0.90;;
34639;SDS011;22600;48.186;11.526;2023-02-18T11:20:25;1.25;;;0.90;;
34639;SDS011;22600;48.186;11.526;2023-02-18T11:22:51;1.27;;;0.80;;
34639;SDS011;22600;48.186;11.526;2023-02-18T11:25:30;1.65;;;1.00;;
34639;SDS011;22600;48.186;11.526;2023-02-18T11:30:42;1.48;;;0.88;;
34639;SDS011;22600;48.186;11.526;2023-02-18T11:33:17;1.52;;;1.00;;
34639;SDS011;22600;48.186;11.526;2023-02-18T11:35:50;1.10;;;0.70;;
34639;SDS011;22600;48.186;11.526;2023-02-18T11:38:28;0.70;;;0.70;;
34639;SDS011;22600;48.186;11.526;2023-02-18T11:41:09;1.02;;;0.85;;
34639;SDS011;22600;48.186;11.526;2023-02-18T11:46:10;1.10;;;0.80;;
34639;SDS011;22600;48.186;11.526;2023-02-18T11:48:40;1.77;;;1.00;;
34639;SDS011;22600;48.186;11.526;2023-02-18T11:56:59;1.70;;;1.10;;
34639;SDS011;22600;48.186;11.526;2023-02-18T11:59:35;1.48;;;0.80;;
34639;SDS011;22600;48.186;11.526;2023-02-18T12:04:45;1.50;;;0.80;;
34639;SDS011;22600;48.186;11.526;2023-02-18T12:07:23;1.30;;;0.90;;
34639;SDS011;22600;48.186;11.526;2023-02-18T12:09:55;0.80;;;0.70;;
34639;SDS011;22600;48.186;11.526;2023-02-18T12:12:29;0.98;;;0.88;;
34639;SDS011;22600;48.186;11.526;2023-02-18T12:14:57;2.35;;;0.90;;
34639;SDS011;22600;48.186;11.526;2023-02-18T12:17:25;1.98;;;0.88;;
34639;SDS011;22600;48.186;11.526;2023-02-18T12:25:46;1.05;;;0.80;;
34639;SDS011;22600;48.186;11.526;2023-02-18T12:29:30;1.65;;;0.80;;
34639;SDS011;22600;48.186;11.526;2023-02-18T12:31:51;0.95;;;0.80;;
34639;SDS011;22600;48.186;11.526;2023-02-18T12:42:53;1.05;;;0.70;;
34639;SDS011;22600;48.186;11.526;2023-02-18T12:45:34;0.93;;;0.80;;
34639;SDS011;22600;48.186;11.526;2023-02-18T12:48:48;1.02;;;0.77;;
34639;SDS011;22600;48.186;11.526;2023-02-18T12:51:17;1.20;;;0.80;;
34639;SDS011;22600;48.186;11.526;2023-02-18T12:56:24;2.33;;;0.75;;
34639;SDS011;22600;48.186;11.526;2023-02-18T13:04:03;2.00;;;0.80;;
34639;SDS011;22600;48.186;11.526;2023-02-18T13:12:16;1.15;;;0.80;;
34639;SDS011;22600;48.186;11.526;2023-02-18T13:17:23;0.93;;;0.70;;
34639;SDS011;22600;48.186;11.526;2023-02-18T13:19:53;0.82;;;0.60;;
34639;SDS011;22600;48.186;11.526;2023-02-18T13:22:23;2.42;;;0.90;;
34639;SDS011;22600;48.186;11.526;2023-02-18T13:24:51;1.98;;;1.10;;
34639;SDS011;22600;48.186;11.526;2023-02-18T13:27:35;4.15;;;0.85;;
34639;SDS011;22600;48.186;11.526;2023-02-18T13:30:17;2.42;;;0.95;;
34639;SDS011;22600;48.186;11.526;2023-02-18T13:36:08;2.05;;;0.80;;
34639;SDS011;22600;48.186;11.526;2023-02-18T13:39:00;1.40;;;0.90;;
34639;SDS011;22600;48.186;11.526;2023-02-18T13:41:38;1.23;;;0.70;;
34639;SDS011;22600;48.186;11.526;2023-02-18T13:46:50;1.77;;;0.70;;
34639;SDS011;22600;48.186;11.526;2023-02-18T13:49:19;3.10;;;1.15;;
34639;SDS011;22600;48.186;11.526;2023-02-18T13:51:51;1.43;;;0.83;;
34639;SDS011;22600;48.186;11.526;2023-02-18T13:56:59;1.67;;;0.90;;
34639;SDS011;22600;48.186;11.526;2023-02-18T13:59:34;2.97;;;0.95;;
34639;SDS011;22600;48.186;11.526;2023-02-18T14:02:34;1.35;;;0.85;;
34639;SDS011;22600;48.186;11.526;2023-02-18T14:07:46;1.17;;;0.80;;
34639;SDS011;22600;48.186;11.526;2023-02-18T14:10:30;1.63;;;0.88;;
34639;SDS011;22600;48.186;11.526;2023-02-18T14:28:34;1.02;;;0.73;;
34639;SDS011;22600;48.186;11.526;2023-02-18T14:31:05;1.15;;;0.73;;
34639;SDS011;22600;48.186;11.526;2023-02-18T14:36:30;1.50;;;0.80;;
34639;SDS011;22600;48.186;11.526;2023-02-18T14:39:24;2.35;;;0.80;;
34639;SDS011;22600;48.186;11.526;2023-02-18T14:42:18;2.25;;;0.95;;
34639;SDS011;22600;48.186;11.526;2023-02-18T14:47:41;1.40;;;0.80;;
34639;SDS011;22600;48.186;11.526;2023-02-18T14:50:21;1.35;;;0.93;;
34639;SDS011;22600;48.186;11.526;2023-02-18T14:52:52;1.10;;;0.82;;
34639;SDS011;22600;48.186;11.526;2023-02-18T14:55:25;1.30;;;0.80;;
34639;SDS011;22600;48.186;11.526;2023-02-18T14:58:07;1.23;;;0.77;;
34639;SDS011;22600;48.186;11.526;2023-02-18T15:00:42;2.75;;;0.73;;
34639;SDS011;22600;48.186;11.526;2023-02-18T15:03:16;0.95;;;0.70;;
34639;SDS011;22600;48.186;11.526;2023-02-18T15:05:44;1.90;;;1.10;;
34639;SDS011;22600;48.186;11.526;2023-02-18T15:08:17;1.00;;;0.70;;
34639;SDS011;22600;48.186;11.526;2023-02-18T15:10:57;1.70;;;0.80;;
34639;SDS011;22600;48.186;11.526;2023-02-18T15:13:26;1.08;;;0.70;;
34639;SDS011;22600;48.186;11.526;2023-02-18T15:15:58;1.13;;;0.63;;
34639;SDS011;22600;48.186;11.526;2023-02-18T15:18:28;2.65;;;0.90;;
34639;SDS011;22600;48.186;11.526;2023-02-18T15:23:24;1.00;;;0.80;;
34639;SDS011;22600;48.186;11.526;2023-02-18T15:25:50;1.55;;;0.90;;
34639;SDS011;22600;48.186;11.526;2023-02-18T15:28:38;1.02;;;0.70;;
34639;SDS011;22600;48.186;11.526;2023-02-18T15:31:08;1.20;;;0.80;;
34639;SDS011;22600;48.186;11.526;2023-02-18T15:33:41;1.20;;;0.90;;
34639;SDS011;22600;48.186;11.526;2023-02-18T15:36:10;1.33;;;0.80;;
34639;SDS011;22600;48.186;11.526;2023-02-18T15:38:38;1.38;;;0.80;;
34639;SDS011;22600;48.186;11.526;2023-02-18T15:41:10;1.00;;;0.75;;
34639;SDS011;22600;48.186;11.526;2023-02-18T15:43:37;1.30;;;0.90;;
34639;SDS011;22600;48.186;11.526;2023-02-18T15:46:08;1.10;;;0.80;;
34639;SDS011;22600;48.186;11.526;2023-02-18T15:48:44;0.80;;;0.70;;
34639;SDS011;22600;48.186;11.526;2023-02-18T15:51:12;1.30;;;0.70;;
34639;SDS011;22600;48.186;11.526;2023-02-18T15:53:41;1.38;;;0.90;;
34639;SDS011;22600;48.186;11.526;2023-02-18T15:56:09;0.90;;;0.80;;
34639;SDS011;22600;48.186;11.526;2023-02-18T15:58:38;1.17;;;0.77;;
34639;SDS011;22600;48.186;11.526;2023-02-18T16:01:04;1.52;;;0.80;;
34639;SDS011;22600;48.186;11.526;2023-02-18T16:03:44;1.10;;;0.70;;
34639;SDS011;22600;48.186;11.526;2023-02-18T16:06:18;1.20;;;0.82;;
34639;SDS011;22600;48.186;11.526;2023-02-18T16:08:58;0.80;;;0.70;;
34639;SDS011;22600;48.186;11.526;2023-02-18T16:11:24;1.17;;;0.90;;
34639;SDS011;22600;48.186;11.526;2023-02-18T16:13:54;2.20;;;1.00;;
34639;SDS011;22600;48.186;11.526;2023-02-18T16:16:23;1.10;;;0.80;;
34639;SDS011;22600;48.186;11.526;2023-02-18T16:18:53;1.63;;;0.70;;
34639;SDS011;22600;48.186;11.526;2023-02-18T16:23:45;1.15;;;0.95;;
34639;SDS011;22600;48.186;11.526;2023-02-18T16:31:45;1.05;;;0.70;;
34639;SDS011;22600;48.186;11.526;2023-02-18T16:34:10;1.10;;;0.80;;
34639;SDS011;22600;48.186;11.526;2023-02-18T16:36:36;1.00;;;0.70;;
34639;SDS011;22600;48.186;11.526;2023-02-18T16:39:21;1.75;;;0.70;;
34639;SDS011;22600;48.186;11.526;2023-02-18T16:41:47;1.73;;;0.90;;
34639;SDS011;22600;48.186;11.526;2023-02-18T16:44:13;0.85;;;0.70;;
34639;SDS011;22600;48.186;11.526;2023-02-18T16:46:39;0.90;;;0.70;;
34639;SDS011;22600;48.186;11.526;2023-02-18T16:49:05;1.08;;;0.85;;
34639;SDS011;22600;48.186;11.526;2023-02-18T16:51:31;1.25;;;0.70;;
34639;SDS011;22600;48.186;11.526;2023-02-18T16:53:59;0.95;;;0.75;;
34639;SDS011;22600;48.186;11.526;2023-02-18T16:56:25;1.20;;;0.90;;
34639;SDS011;22600;48.186;11.526;2023-02-18T16:58:54;0.77;;;0.60;;